sensor_id;sensor_type;location;lat;lon;timestamp;temperature;humidity
17080;DHT22;8655;57.106;-2.088;2022-12-11T00:00:53;15.70;50.50
17080;DHT22;8655;57.106;-2.088;2022-12-11T00:03:19;15.70;50.40
17080;DHT22;8655;57.106;-2.088;2022-12-11T00:05:45;15.70;50.40
17080;DHT22;8655;57.106;-2.088;2022-12-11T00:08:11;15.60;50.30
17080;DHT22;8655;57.106;-2.088;2022-12-11T00:10:37;15.60;50.30
17080;DHT22;8655;57.106;-2.088;2022-12-11T00:13:03;15.60;50.30
17080;DHT22;8655;57.106;-2.088;2022-12-11T00:15:29;15.60;50.30
17080;DHT22;8655;57.106;-2.088;2022-12-11T00:17:55;15.60;50.40
17080;DHT22;8655;57.106;-2.088;2022-12-11T00:20:21;15.60;50.40
17080;DHT22;8655;57.106;-2.088;2022-12-11T00:22:46;15.60;50.40
17080;DHT22;8655;57.106;-2.088;2022-12-11T00:25:12;15.60;50.40
17080;DHT22;8655;57.106;-2.088;2022-12-11T00:27:38;15.60;50.40
17080;DHT22;8655;57.106;-2.088;2022-12-11T00:30:04;15.60;50.40
17080;DHT22;8655;57.106;-2.088;2022-12-11T00:32:30;15.60;50.30
17080;DHT22;8655;57.106;-2.088;2022-12-11T00:34:56;15.60;50.30
17080;DHT22;8655;57.106;-2.088;2022-12-11T00:37:22;15.50;50.30
17080;DHT22;8655;57.106;-2.088;2022-12-11T00:39:48;15.50;50.30
17080;DHT22;8655;57.106;-2.088;2022-12-11T00:42:14;15.50;50.20
17080;DHT22;8655;57.106;-2.088;2022-12-11T00:44:39;15.50;50.30
17080;DHT22;8655;57.106;-2.088;2022-12-11T00:47:05;15.50;50.30
17080;DHT22;8655;57.106;-2.088;2022-12-11T00:49:31;15.50;50.30
17080;DHT22;8655;57.106;-2.088;2022-12-11T00:51:57;15.50;50.30
17080;DHT22;8655;57.106;-2.088;2022-12-11T00:54:23;15.50;50.30
17080;DHT22;8655;57.106;-2.088;2022-12-11T00:56:49;15.50;50.30
17080;DHT22;8655;57.106;-2.088;2022-12-11T00:59:15;15.50;50.30
17080;DHT22;8655;57.106;-2.088;2022-12-11T01:01:41;15.50;50.30
17080;DHT22;8655;57.106;-2.088;2022-12-11T01:04:06;15.50;50.30
17080;DHT22;8655;57.106;-2.088;2022-12-11T01:06:32;15.50;50.20
17080;DHT22;8655;57.106;-2.088;2022-12-11T01:08:58;15.50;50.30
17080;DHT22;8655;57.106;-2.088;2022-12-11T01:11:42;15.50;50.20
17080;DHT22;8655;57.106;-2.088;2022-12-11T01:14:11;15.50;50.30
17080;DHT22;8655;57.106;-2.088;2022-12-11T01:16:37;15.40;50.20
17080;DHT22;8655;57.106;-2.088;2022-12-11T01:19:03;15.40;50.20
17080;DHT22;8655;57.106;-2.088;2022-12-11T01:21:28;15.40;50.20
17080;DHT22;8655;57.106;-2.088;2022-12-11T01:23:54;15.40;50.20
17080;DHT22;8655;57.106;-2.088;2022-12-11T01:26:20;15.40;50.20
17080;DHT22;8655;57.106;-2.088;2022-12-11T01:28:50;15.40;50.20
17080;DHT22;8655;57.106;-2.088;2022-12-11T01:31:17;15.40;50.20
17080;DHT22;8655;57.106;-2.088;2022-12-11T01:33:43;15.40;50.20
17080;DHT22;8655;57.106;-2.088;2022-12-11T01:36:15;15.40;50.20
17080;DHT22;8655;57.106;-2.088;2022-12-11T01:38:41;15.40;50.20
17080;DHT22;8655;57.106;-2.088;2022-12-11T01:41:07;15.40;50.20
17080;DHT22;8655;57.106;-2.088;2022-12-11T01:43:32;15.40;50.20
17080;DHT22;8655;57.106;-2.088;2022-12-11T01:45:58;15.40;50.20
17080;DHT22;8655;57.106;-2.088;2022-12-11T01:48:27;15.40;50.20
17080;DHT22;8655;57.106;-2.088;2022-12-11T01:50:58;15.30;50.10
17080;DHT22;8655;57.106;-2.088;2022-12-11T01:53:37;15.40;50.20
17080;DHT22;8655;57.106;-2.088;2022-12-11T01:56:05;15.30;50.10
17080;DHT22;8655;57.106;-2.088;2022-12-11T01:58:37;15.30;50.10
17080;DHT22;8655;57.106;-2.088;2022-12-11T02:01:04;15.30;50.00
17080;DHT22;8655;57.106;-2.088;2022-12-11T02:03:30;15.30;50.10
17080;DHT22;8655;57.106;-2.088;2022-12-11T02:06:00;15.30;50.10
17080;DHT22;8655;57.106;-2.088;2022-12-11T02:08:26;15.40;50.10
17080;DHT22;8655;57.106;-2.088;2022-12-11T02:11:00;15.30;50.00
17080;DHT22;8655;57.106;-2.088;2022-12-11T02:13:51;15.30;50.10
17080;DHT22;8655;57.106;-2.088;2022-12-11T02:16:27;15.30;50.00
17080;DHT22;8655;57.106;-2.088;2022-12-11T02:19:38;15.30;50.00
17080;DHT22;8655;57.106;-2.088;2022-12-11T02:21:48;15.30;50.00
17080;DHT22;8655;57.106;-2.088;2022-12-11T02:30:06;15.30;50.00
17080;DHT22;8655;57.106;-2.088;2022-12-11T02:35:18;15.20;50.00
17080;DHT22;8655;57.106;-2.088;2022-12-11T02:37:47;15.20;49.90
17080;DHT22;8655;57.106;-2.088;2022-12-11T02:40:19;15.20;50.00
17080;DHT22;8655;57.106;-2.088;2022-12-11T02:42:47;15.20;50.00
17080;DHT22;8655;57.106;-2.088;2022-12-11T02:45:15;15.20;50.00
17080;DHT22;8655;57.106;-2.088;2022-12-11T02:47:45;15.20;50.00
17080;DHT22;8655;57.106;-2.088;2022-12-11T02:50:14;15.20;50.00
17080;DHT22;8655;57.106;-2.088;2022-12-11T02:52:41;15.20;50.00
17080;DHT22;8655;57.106;-2.088;2022-12-11T02:57:51;15.20;50.00
17080;DHT22;8655;57.106;-2.088;2022-12-11T03:00:20;15.20;50.00
17080;DHT22;8655;57.106;-2.088;2022-12-11T03:02:46;15.20;49.90
17080;DHT22;8655;57.106;-2.088;2022-12-11T03:05:13;15.20;49.90
17080;DHT22;8655;57.106;-2.088;2022-12-11T03:07:41;15.20;49.90
17080;DHT22;8655;57.106;-2.088;2022-12-11T03:10:11;15.20;49.90
17080;DHT22;8655;57.106;-2.088;2022-12-11T03:12:42;15.20;49.90
17080;DHT22;8655;57.106;-2.088;2022-12-11T03:15:12;15.20;49.90
17080;DHT22;8655;57.106;-2.088;2022-12-11T03:23:15;15.10;49.80
17080;DHT22;8655;57.106;-2.088;2022-12-11T03:26:00;15.10;49.80
17080;DHT22;8655;57.106;-2.088;2022-12-11T03:29:04;15.10;49.80
17080;DHT22;8655;57.106;-2.088;2022-12-11T03:31:33;15.10;49.80
17080;DHT22;8655;57.106;-2.088;2022-12-11T03:34:03;15.10;50.00
17080;DHT22;8655;57.106;-2.088;2022-12-11T03:36:35;15.10;49.80
17080;DHT22;8655;57.106;-2.088;2022-12-11T03:39:08;15.10;49.80
17080;DHT22;8655;57.106;-2.088;2022-12-11T03:41:36;15.10;49.80
17080;DHT22;8655;57.106;-2.088;2022-12-11T03:44:03;15.10;49.80
17080;DHT22;8655;57.106;-2.088;2022-12-11T03:46:37;15.10;49.80
17080;DHT22;8655;57.106;-2.088;2022-12-11T03:49:10;15.10;49.80
17080;DHT22;8655;57.106;-2.088;2022-12-11T03:51:38;15.10;49.80
17080;DHT22;8655;57.106;-2.088;2022-12-11T03:54:05;15.10;49.80
17080;DHT22;8655;57.106;-2.088;2022-12-11T03:56:33;15.00;49.70
17080;DHT22;8655;57.106;-2.088;2022-12-11T03:58:59;15.10;49.80
17080;DHT22;8655;57.106;-2.088;2022-12-11T04:01:25;15.00;49.70
17080;DHT22;8655;57.106;-2.088;2022-12-11T04:03:51;15.00;49.70
17080;DHT22;8655;57.106;-2.088;2022-12-11T04:06:16;15.00;49.70
17080;DHT22;8655;57.106;-2.088;2022-12-11T04:08:42;15.00;49.70
17080;DHT22;8655;57.106;-2.088;2022-12-11T04:11:09;15.00;49.70
17080;DHT22;8655;57.106;-2.088;2022-12-11T04:13:53;15.00;49.70
17080;DHT22;8655;57.106;-2.088;2022-12-11T04:16:37;15.00;49.70
17080;DHT22;8655;57.106;-2.088;2022-12-11T04:19:03;15.00;49.70
17080;DHT22;8655;57.106;-2.088;2022-12-11T04:21:47;15.00;49.70
17080;DHT22;8655;57.106;-2.088;2022-12-11T04:24:32;15.00;49.70
17080;DHT22;8655;57.106;-2.088;2022-12-11T04:26:58;15.00;49.70
17080;DHT22;8655;57.106;-2.088;2022-12-11T04:29:23;15.00;49.70
17080;DHT22;8655;57.106;-2.088;2022-12-11T04:31:49;15.00;49.70
17080;DHT22;8655;57.106;-2.088;2022-12-11T04:34:15;15.00;49.70
17080;DHT22;8655;57.106;-2.088;2022-12-11T04:36:41;15.00;49.60
17080;DHT22;8655;57.106;-2.088;2022-12-11T04:39:06;15.00;49.70
17080;DHT22;8655;57.106;-2.088;2022-12-11T04:41:32;15.00;49.70
17080;DHT22;8655;57.106;-2.088;2022-12-11T04:43:58;14.90;49.60
17080;DHT22;8655;57.106;-2.088;2022-12-11T04:46:24;14.90;49.60
17080;DHT22;8655;57.106;-2.088;2022-12-11T04:48:51;14.90;49.60
17080;DHT22;8655;57.106;-2.088;2022-12-11T04:51:17;14.90;49.60
17080;DHT22;8655;57.106;-2.088;2022-12-11T04:53:43;14.90;50.10
17080;DHT22;8655;57.106;-2.088;2022-12-11T04:56:11;14.90;49.60
17080;DHT22;8655;57.106;-2.088;2022-12-11T04:58:40;14.90;49.60
17080;DHT22;8655;57.106;-2.088;2022-12-11T05:01:14;14.90;49.60
17080;DHT22;8655;57.106;-2.088;2022-12-11T05:03:40;14.90;49.60
17080;DHT22;8655;57.106;-2.088;2022-12-11T05:06:08;14.90;49.60
17080;DHT22;8655;57.106;-2.088;2022-12-11T05:08:36;14.90;49.60
17080;DHT22;8655;57.106;-2.088;2022-12-11T05:11:04;14.90;49.60
17080;DHT22;8655;57.106;-2.088;2022-12-11T05:13:30;14.90;49.60
17080;DHT22;8655;57.106;-2.088;2022-12-11T05:15:57;14.90;49.60
17080;DHT22;8655;57.106;-2.088;2022-12-11T05:18:23;14.90;49.60
17080;DHT22;8655;57.106;-2.088;2022-12-11T05:21:00;14.80;49.40
17080;DHT22;8655;57.106;-2.088;2022-12-11T05:23:26;14.90;49.60
17080;DHT22;8655;57.106;-2.088;2022-12-11T05:25:54;14.80;49.40
17080;DHT22;8655;57.106;-2.088;2022-12-11T05:28:20;14.80;49.40
17080;DHT22;8655;57.106;-2.088;2022-12-11T05:30:47;14.80;49.50
17080;DHT22;8655;57.106;-2.088;2022-12-11T05:33:13;14.80;49.40
17080;DHT22;8655;57.106;-2.088;2022-12-11T05:35:38;14.80;49.40
17080;DHT22;8655;57.106;-2.088;2022-12-11T05:38:04;14.80;49.40
17080;DHT22;8655;57.106;-2.088;2022-12-11T05:40:29;14.80;49.40
17080;DHT22;8655;57.106;-2.088;2022-12-11T05:42:55;14.80;49.40
17080;DHT22;8655;57.106;-2.088;2022-12-11T05:45:21;14.80;49.40
17080;DHT22;8655;57.106;-2.088;2022-12-11T05:47:46;14.80;49.50
17080;DHT22;8655;57.106;-2.088;2022-12-11T05:50:12;14.80;49.40
17080;DHT22;8655;57.106;-2.088;2022-12-11T05:52:38;14.80;49.40
17080;DHT22;8655;57.106;-2.088;2022-12-11T05:55:04;14.80;49.40
17080;DHT22;8655;57.106;-2.088;2022-12-11T05:57:29;14.80;49.40
17080;DHT22;8655;57.106;-2.088;2022-12-11T05:59:55;14.80;49.40
17080;DHT22;8655;57.106;-2.088;2022-12-11T06:02:21;14.80;49.40
17080;DHT22;8655;57.106;-2.088;2022-12-11T06:04:46;14.70;49.30
17080;DHT22;8655;57.106;-2.088;2022-12-11T06:07:13;14.80;49.40
17080;DHT22;8655;57.106;-2.088;2022-12-11T06:09:38;14.80;49.40
17080;DHT22;8655;57.106;-2.088;2022-12-11T06:12:04;14.70;49.30
17080;DHT22;8655;57.106;-2.088;2022-12-11T06:14:30;14.70;49.30
17080;DHT22;8655;57.106;-2.088;2022-12-11T06:16:55;14.70;49.30
17080;DHT22;8655;57.106;-2.088;2022-12-11T06:19:22;14.70;49.30
17080;DHT22;8655;57.106;-2.088;2022-12-11T06:21:48;14.70;49.30
17080;DHT22;8655;57.106;-2.088;2022-12-11T06:24:14;14.70;49.30
17080;DHT22;8655;57.106;-2.088;2022-12-11T06:26:39;14.70;49.30
17080;DHT22;8655;57.106;-2.088;2022-12-11T06:29:05;14.70;49.30
17080;DHT22;8655;57.106;-2.088;2022-12-11T06:31:31;14.70;49.30
17080;DHT22;8655;57.106;-2.088;2022-12-11T06:33:56;14.70;49.30
17080;DHT22;8655;57.106;-2.088;2022-12-11T06:36:23;14.70;49.30
17080;DHT22;8655;57.106;-2.088;2022-12-11T06:38:49;14.70;49.30
17080;DHT22;8655;57.106;-2.088;2022-12-11T06:41:16;14.70;49.30
17080;DHT22;8655;57.106;-2.088;2022-12-11T06:43:42;14.60;49.20
17080;DHT22;8655;57.106;-2.088;2022-12-11T06:46:10;14.60;49.20
17080;DHT22;8655;57.106;-2.088;2022-12-11T06:48:36;14.60;49.20
17080;DHT22;8655;57.106;-2.088;2022-12-11T06:51:10;14.60;49.30
17080;DHT22;8655;57.106;-2.088;2022-12-11T06:53:37;14.60;49.30
17080;DHT22;8655;57.106;-2.088;2022-12-11T06:56:05;14.70;49.50
17080;DHT22;8655;57.106;-2.088;2022-12-11T06:58:33;14.70;49.50
17080;DHT22;8655;57.106;-2.088;2022-12-11T07:00:58;14.70;49.50
17080;DHT22;8655;57.106;-2.088;2022-12-11T07:03:24;14.80;50.20
17080;DHT22;8655;57.106;-2.088;2022-12-11T07:05:50;14.80;49.50
17080;DHT22;8655;57.106;-2.088;2022-12-11T07:08:15;14.80;49.50
17080;DHT22;8655;57.106;-2.088;2022-12-11T07:10:41;14.90;49.60
17080;DHT22;8655;57.106;-2.088;2022-12-11T07:13:07;14.90;49.60
17080;DHT22;8655;57.106;-2.088;2022-12-11T07:15:32;15.00;49.90
17080;DHT22;8655;57.106;-2.088;2022-12-11T07:17:58;15.00;49.60
17080;DHT22;8655;57.106;-2.088;2022-12-11T07:20:24;15.10;49.70
17080;DHT22;8655;57.106;-2.088;2022-12-11T07:22:49;15.10;49.70
17080;DHT22;8655;57.106;-2.088;2022-12-11T07:25:15;15.20;49.70
17080;DHT22;8655;57.106;-2.088;2022-12-11T07:27:41;15.20;49.70
17080;DHT22;8655;57.106;-2.088;2022-12-11T07:30:08;15.30;49.70
17080;DHT22;8655;57.106;-2.088;2022-12-11T07:32:34;15.30;49.70
17080;DHT22;8655;57.106;-2.088;2022-12-11T07:34:59;15.40;49.80
17080;DHT22;8655;57.106;-2.088;2022-12-11T07:37:25;15.40;49.80
17080;DHT22;8655;57.106;-2.088;2022-12-11T07:39:50;15.50;49.80
17080;DHT22;8655;57.106;-2.088;2022-12-11T07:42:16;15.50;49.80
17080;DHT22;8655;57.106;-2.088;2022-12-11T07:44:42;15.60;49.90
17080;DHT22;8655;57.106;-2.088;2022-12-11T07:47:07;15.60;49.90
17080;DHT22;8655;57.106;-2.088;2022-12-11T07:49:33;15.70;50.00
17080;DHT22;8655;57.106;-2.088;2022-12-11T07:51:59;15.70;50.00
17080;DHT22;8655;57.106;-2.088;2022-12-11T07:54:24;15.80;50.00
17080;DHT22;8655;57.106;-2.088;2022-12-11T07:56:50;15.80;50.00
17080;DHT22;8655;57.106;-2.088;2022-12-11T07:59:16;15.90;50.00
17080;DHT22;8655;57.106;-2.088;2022-12-11T08:01:42;15.90;50.00
17080;DHT22;8655;57.106;-2.088;2022-12-11T08:04:09;16.00;50.10
17080;DHT22;8655;57.106;-2.088;2022-12-11T08:06:37;16.00;50.10
17080;DHT22;8655;57.106;-2.088;2022-12-11T08:09:06;16.10;50.10
17080;DHT22;8655;57.106;-2.088;2022-12-11T08:11:32;16.10;50.10
17080;DHT22;8655;57.106;-2.088;2022-12-11T08:13:59;16.10;50.10
17080;DHT22;8655;57.106;-2.088;2022-12-11T08:16:25;16.20;50.20
17080;DHT22;8655;57.106;-2.088;2022-12-11T08:18:51;16.20;50.20
17080;DHT22;8655;57.106;-2.088;2022-12-11T08:21:19;16.30;50.30
17080;DHT22;8655;57.106;-2.088;2022-12-11T08:23:45;16.30;50.20
17080;DHT22;8655;57.106;-2.088;2022-12-11T08:26:14;16.30;50.30
17080;DHT22;8655;57.106;-2.088;2022-12-11T08:28:40;16.40;50.40
17080;DHT22;8655;57.106;-2.088;2022-12-11T08:31:07;16.40;50.40
17080;DHT22;8655;57.106;-2.088;2022-12-11T08:33:34;16.50;50.40
17080;DHT22;8655;57.106;-2.088;2022-12-11T08:36:09;16.50;50.40
17080;DHT22;8655;57.106;-2.088;2022-12-11T08:38:35;16.60;50.50
17080;DHT22;8655;57.106;-2.088;2022-12-11T08:41:12;16.60;50.50
17080;DHT22;8655;57.106;-2.088;2022-12-11T08:43:39;16.60;50.50
17080;DHT22;8655;57.106;-2.088;2022-12-11T08:46:05;16.70;50.50
17080;DHT22;8655;57.106;-2.088;2022-12-11T08:48:32;16.70;50.50
17080;DHT22;8655;57.106;-2.088;2022-12-11T08:50:59;16.70;50.50
17080;DHT22;8655;57.106;-2.088;2022-12-11T08:53:29;16.80;50.60
17080;DHT22;8655;57.106;-2.088;2022-12-11T08:56:13;16.80;50.50
17080;DHT22;8655;57.106;-2.088;2022-12-11T08:58:39;16.90;50.60
17080;DHT22;8655;57.106;-2.088;2022-12-11T09:01:11;16.90;50.60
17080;DHT22;8655;57.106;-2.088;2022-12-11T09:03:38;16.90;50.60
17080;DHT22;8655;57.106;-2.088;2022-12-11T09:06:12;16.90;50.60
17080;DHT22;8655;57.106;-2.088;2022-12-11T09:08:39;16.90;50.60
17080;DHT22;8655;57.106;-2.088;2022-12-11T09:11:13;16.90;50.60
17080;DHT22;8655;57.106;-2.088;2022-12-11T09:13:39;16.90;50.50
17080;DHT22;8655;57.106;-2.088;2022-12-11T09:16:10;16.90;50.60
17080;DHT22;8655;57.106;-2.088;2022-12-11T09:18:37;16.90;50.60
17080;DHT22;8655;57.106;-2.088;2022-12-11T09:21:10;16.90;50.50
17080;DHT22;8655;57.106;-2.088;2022-12-11T09:23:38;16.90;50.50
17080;DHT22;8655;57.106;-2.088;2022-12-11T09:26:05;16.90;50.50
17080;DHT22;8655;57.106;-2.088;2022-12-11T09:28:31;16.90;50.50
17080;DHT22;8655;57.106;-2.088;2022-12-11T09:30:56;16.90;50.50
17080;DHT22;8655;57.106;-2.088;2022-12-11T09:33:22;16.90;50.50
17080;DHT22;8655;57.106;-2.088;2022-12-11T09:35:58;16.90;50.50
17080;DHT22;8655;57.106;-2.088;2022-12-11T09:38:24;16.90;50.50
17080;DHT22;8655;57.106;-2.088;2022-12-11T09:40:50;16.90;50.50
17080;DHT22;8655;57.106;-2.088;2022-12-11T09:43:41;16.80;50.40
17080;DHT22;8655;57.106;-2.088;2022-12-11T09:46:13;16.80;50.40
17080;DHT22;8655;57.106;-2.088;2022-12-11T09:48:41;16.80;50.40
17080;DHT22;8655;57.106;-2.088;2022-12-11T09:51:35;16.80;50.40
17080;DHT22;8655;57.106;-2.088;2022-12-11T09:54:04;16.80;50.40
17080;DHT22;8655;57.106;-2.088;2022-12-11T09:56:38;16.80;50.50
17080;DHT22;8655;57.106;-2.088;2022-12-11T09:59:35;16.70;50.40
17080;DHT22;8655;57.106;-2.088;2022-12-11T10:07:58;16.70;50.40
17080;DHT22;8655;57.106;-2.088;2022-12-11T10:16:18;16.60;50.40
17080;DHT22;8655;57.106;-2.088;2022-12-11T10:18:47;16.60;50.30
17080;DHT22;8655;57.106;-2.088;2022-12-11T10:21:15;16.60;50.40
17080;DHT22;8655;57.106;-2.088;2022-12-11T10:23:55;16.60;50.40
17080;DHT22;8655;57.106;-2.088;2022-12-11T10:26:22;16.50;50.30
17080;DHT22;8655;57.106;-2.088;2022-12-11T10:28:48;16.50;50.30
17080;DHT22;8655;57.106;-2.088;2022-12-11T10:31:40;16.50;50.30
17080;DHT22;8655;57.106;-2.088;2022-12-11T10:34:11;16.50;50.30
17080;DHT22;8655;57.106;-2.088;2022-12-11T10:36:40;16.50;50.40
17080;DHT22;8655;57.106;-2.088;2022-12-11T10:39:14;16.40;50.30
17080;DHT22;8655;57.106;-2.088;2022-12-11T10:41:42;16.50;50.30
17080;DHT22;8655;57.106;-2.088;2022-12-11T10:44:27;16.40;50.30
17080;DHT22;8655;57.106;-2.088;2022-12-11T10:47:14;16.40;50.30
17080;DHT22;8655;57.106;-2.088;2022-12-11T10:49:52;16.40;50.30
17080;DHT22;8655;57.106;-2.088;2022-12-11T10:52:24;16.40;50.30
17080;DHT22;8655;57.106;-2.088;2022-12-11T10:55:17;16.40;50.30
17080;DHT22;8655;57.106;-2.088;2022-12-11T10:57:45;16.40;50.30
17080;DHT22;8655;57.106;-2.088;2022-12-11T11:02:57;16.30;50.20
17080;DHT22;8655;57.106;-2.088;2022-12-11T11:05:31;16.30;50.20
17080;DHT22;8655;57.106;-2.088;2022-12-11T11:08:21;16.30;50.20
17080;DHT22;8655;57.106;-2.088;2022-12-11T11:10:54;16.30;50.20
17080;DHT22;8655;57.106;-2.088;2022-12-11T11:13:22;16.30;50.20
17080;DHT22;8655;57.106;-2.088;2022-12-11T11:15:49;16.30;50.20
17080;DHT22;8655;57.106;-2.088;2022-12-11T11:18:24;16.30;50.20
17080;DHT22;8655;57.106;-2.088;2022-12-11T11:20:51;16.20;50.10
17080;DHT22;8655;57.106;-2.088;2022-12-11T11:23:18;16.20;50.10
17080;DHT22;8655;57.106;-2.088;2022-12-11T11:25:54;16.20;50.10
17080;DHT22;8655;57.106;-2.088;2022-12-11T11:28:29;16.20;50.10
17080;DHT22;8655;57.106;-2.088;2022-12-11T11:31:07;16.20;50.10
17080;DHT22;8655;57.106;-2.088;2022-12-11T11:33:36;16.20;50.10
17080;DHT22;8655;57.106;-2.088;2022-12-11T11:36:24;16.20;50.10
17080;DHT22;8655;57.106;-2.088;2022-12-11T11:39:02;16.20;50.10
17080;DHT22;8655;57.106;-2.088;2022-12-11T11:41:39;16.20;50.10
17080;DHT22;8655;57.106;-2.088;2022-12-11T11:44:12;16.10;50.00
17080;DHT22;8655;57.106;-2.088;2022-12-11T11:46:52;16.10;50.00
17080;DHT22;8655;57.106;-2.088;2022-12-11T11:49:42;16.10;50.00
17080;DHT22;8655;57.106;-2.088;2022-12-11T11:52:21;16.10;50.00
17080;DHT22;8655;57.106;-2.088;2022-12-11T12:00:18;16.10;50.00
17080;DHT22;8655;57.106;-2.088;2022-12-11T12:02:46;16.10;50.00
17080;DHT22;8655;57.106;-2.088;2022-12-11T12:05:14;16.00;50.00
17080;DHT22;8655;57.106;-2.088;2022-12-11T12:10:54;16.00;50.00
17080;DHT22;8655;57.106;-2.088;2022-12-11T12:14:03;16.00;50.00
17080;DHT22;8655;57.106;-2.088;2022-12-11T12:24:54;16.00;50.00
17080;DHT22;8655;57.106;-2.088;2022-12-11T12:30:08;16.00;50.00
17080;DHT22;8655;57.106;-2.088;2022-12-11T12:38:41;16.00;50.00
17080;DHT22;8655;57.106;-2.088;2022-12-11T12:46:55;15.90;49.90
17080;DHT22;8655;57.106;-2.088;2022-12-11T12:51:59;15.90;49.90
17080;DHT22;8655;57.106;-2.088;2022-12-11T12:54:28;15.90;49.90
17080;DHT22;8655;57.106;-2.088;2022-12-11T12:56:55;15.90;49.90
17080;DHT22;8655;57.106;-2.088;2022-12-11T12:59:26;15.90;49.90
17080;DHT22;8655;57.106;-2.088;2022-12-11T13:02:01;15.90;49.90
17080;DHT22;8655;57.106;-2.088;2022-12-11T13:04:54;15.90;49.90
17080;DHT22;8655;57.106;-2.088;2022-12-11T13:07:24;15.90;49.90
17080;DHT22;8655;57.106;-2.088;2022-12-11T13:10:20;15.90;49.90
17080;DHT22;8655;57.106;-2.088;2022-12-11T13:12:50;15.90;49.90
17080;DHT22;8655;57.106;-2.088;2022-12-11T13:15:32;15.90;49.90
17080;DHT22;8655;57.106;-2.088;2022-12-11T13:18:00;15.90;49.90
17080;DHT22;8655;57.106;-2.088;2022-12-11T13:20:28;15.90;49.90
17080;DHT22;8655;57.106;-2.088;2022-12-11T13:23:08;15.80;49.80
17080;DHT22;8655;57.106;-2.088;2022-12-11T13:25:54;15.80;49.80
17080;DHT22;8655;57.106;-2.088;2022-12-11T13:33:42;15.80;49.80
17080;DHT22;8655;57.106;-2.088;2022-12-11T13:38:34;15.80;49.80
17080;DHT22;8655;57.106;-2.088;2022-12-11T13:41:01;15.80;49.80
17080;DHT22;8655;57.106;-2.088;2022-12-11T13:43:32;15.80;49.80
17080;DHT22;8655;57.106;-2.088;2022-12-11T13:46:00;15.80;49.80
17080;DHT22;8655;57.106;-2.088;2022-12-11T13:48:31;15.80;49.80
17080;DHT22;8655;57.106;-2.088;2022-12-11T13:50:58;15.80;49.80
17080;DHT22;8655;57.106;-2.088;2022-12-11T13:53:24;15.80;49.80
17080;DHT22;8655;57.106;-2.088;2022-12-11T13:55:59;15.80;49.80
17080;DHT22;8655;57.106;-2.088;2022-12-11T13:58:26;15.80;49.80
17080;DHT22;8655;57.106;-2.088;2022-12-11T14:01:07;15.80;49.80
17080;DHT22;8655;57.106;-2.088;2022-12-11T14:03:39;15.80;49.80
17080;DHT22;8655;57.106;-2.088;2022-12-11T14:06:08;15.80;49.80
17080;DHT22;8655;57.106;-2.088;2022-12-11T14:08:36;15.80;49.80
17080;DHT22;8655;57.106;-2.088;2022-12-11T14:11:04;15.70;49.70
17080;DHT22;8655;57.106;-2.088;2022-12-11T14:13:35;15.70;49.70
17080;DHT22;8655;57.106;-2.088;2022-12-11T14:16:01;15.70;49.70
17080;DHT22;8655;57.106;-2.088;2022-12-11T14:18:30;15.70;49.70
17080;DHT22;8655;57.106;-2.088;2022-12-11T14:20:59;15.70;49.70
17080;DHT22;8655;57.106;-2.088;2022-12-11T14:23:33;15.70;49.70
17080;DHT22;8655;57.106;-2.088;2022-12-11T14:26:17;15.70;49.70
17080;DHT22;8655;57.106;-2.088;2022-12-11T14:28:44;15.70;49.70
17080;DHT22;8655;57.106;-2.088;2022-12-11T14:31:14;15.70;49.70
17080;DHT22;8655;57.106;-2.088;2022-12-11T14:33:44;15.70;49.70
17080;DHT22;8655;57.106;-2.088;2022-12-11T14:36:13;15.70;49.70
17080;DHT22;8655;57.106;-2.088;2022-12-11T14:38:56;15.70;49.70
17080;DHT22;8655;57.106;-2.088;2022-12-11T14:41:28;15.70;49.70
17080;DHT22;8655;57.106;-2.088;2022-12-11T14:43:59;15.70;49.70
17080;DHT22;8655;57.106;-2.088;2022-12-11T14:46:39;15.70;49.70
17080;DHT22;8655;57.106;-2.088;2022-12-11T14:51:55;15.70;49.70
17080;DHT22;8655;57.106;-2.088;2022-12-11T14:54:33;15.70;49.70
17080;DHT22;8655;57.106;-2.088;2022-12-11T14:57:01;15.70;49.70
17080;DHT22;8655;57.106;-2.088;2022-12-11T14:59:32;15.70;49.70
17080;DHT22;8655;57.106;-2.088;2022-12-11T15:02:19;15.70;49.80
17080;DHT22;8655;57.106;-2.088;2022-12-11T15:04:58;15.60;49.60
17080;DHT22;8655;57.106;-2.088;2022-12-11T15:07:25;15.60;49.60
17080;DHT22;8655;57.106;-2.088;2022-12-11T15:09:51;15.60;49.60
17080;DHT22;8655;57.106;-2.088;2022-12-11T15:12:18;15.60;49.60
17080;DHT22;8655;57.106;-2.088;2022-12-11T15:14:58;15.60;49.60
17080;DHT22;8655;57.106;-2.088;2022-12-11T15:17:28;15.60;49.60
17080;DHT22;8655;57.106;-2.088;2022-12-11T15:20:07;15.60;49.60
17080;DHT22;8655;57.106;-2.088;2022-12-11T15:22:33;15.60;49.60
17080;DHT22;8655;57.106;-2.088;2022-12-11T15:25:00;15.60;49.60
17080;DHT22;8655;57.106;-2.088;2022-12-11T15:27:32;15.60;49.60
17080;DHT22;8655;57.106;-2.088;2022-12-11T15:30:00;15.60;49.60
17080;DHT22;8655;57.106;-2.088;2022-12-11T15:32:29;15.60;49.60
17080;DHT22;8655;57.106;-2.088;2022-12-11T15:34:59;15.60;49.60
17080;DHT22;8655;57.106;-2.088;2022-12-11T15:37:30;15.50;49.50
17080;DHT22;8655;57.106;-2.088;2022-12-11T15:39:58;15.60;49.60
17080;DHT22;8655;57.106;-2.088;2022-12-11T15:42:28;15.50;49.50
17080;DHT22;8655;57.106;-2.088;2022-12-11T15:44:55;15.50;49.50
17080;DHT22;8655;57.106;-2.088;2022-12-11T15:47:24;15.50;49.60
17080;DHT22;8655;57.106;-2.088;2022-12-11T15:49:57;15.50;49.50
17080;DHT22;8655;57.106;-2.088;2022-12-11T15:52:23;15.50;49.50
17080;DHT22;8655;57.106;-2.088;2022-12-11T15:54:50;15.50;49.50
17080;DHT22;8655;57.106;-2.088;2022-12-11T15:57:19;15.50;49.50
17080;DHT22;8655;57.106;-2.088;2022-12-11T15:59:46;15.50;49.50
17080;DHT22;8655;57.106;-2.088;2022-12-11T16:02:15;15.50;49.50
17080;DHT22;8655;57.106;-2.088;2022-12-11T16:04:41;15.50;49.50
17080;DHT22;8655;57.106;-2.088;2022-12-11T16:07:18;15.50;49.50
17080;DHT22;8655;57.106;-2.088;2022-12-11T16:09:45;15.50;49.50
17080;DHT22;8655;57.106;-2.088;2022-12-11T16:12:11;15.50;49.50
17080;DHT22;8655;57.106;-2.088;2022-12-11T16:14:41;15.50;49.50
17080;DHT22;8655;57.106;-2.088;2022-12-11T16:17:08;15.50;49.50
17080;DHT22;8655;57.106;-2.088;2022-12-11T16:19:35;15.50;49.50
17080;DHT22;8655;57.106;-2.088;2022-12-11T16:22:01;15.50;49.50
17080;DHT22;8655;57.106;-2.088;2022-12-11T16:24:27;15.40;49.40
17080;DHT22;8655;57.106;-2.088;2022-12-11T16:26:53;15.40;49.40
17080;DHT22;8655;57.106;-2.088;2022-12-11T16:29:18;15.40;49.40
17080;DHT22;8655;57.106;-2.088;2022-12-11T16:31:44;15.40;49.40
17080;DHT22;8655;57.106;-2.088;2022-12-11T16:34:10;15.40;49.40
17080;DHT22;8655;57.106;-2.088;2022-12-11T16:36:35;15.40;49.40
17080;DHT22;8655;57.106;-2.088;2022-12-11T16:39:01;15.40;49.40
17080;DHT22;8655;57.106;-2.088;2022-12-11T16:41:27;15.40;49.40
17080;DHT22;8655;57.106;-2.088;2022-12-11T16:43:52;15.40;49.40
17080;DHT22;8655;57.106;-2.088;2022-12-11T16:46:22;15.40;49.40
17080;DHT22;8655;57.106;-2.088;2022-12-11T16:48:48;15.40;49.40
17080;DHT22;8655;57.106;-2.088;2022-12-11T16:51:15;15.40;49.40
17080;DHT22;8655;57.106;-2.088;2022-12-11T16:53:41;15.40;49.40
17080;DHT22;8655;57.106;-2.088;2022-12-11T16:56:07;15.40;49.40
17080;DHT22;8655;57.106;-2.088;2022-12-11T16:58:33;15.30;49.30
17080;DHT22;8655;57.106;-2.088;2022-12-11T17:01:00;15.30;49.30